sensor_id;sensor_type;location;lat;lon;timestamp;pressure;altitude;pressure_sealevel;temperature;humidity
70338;BME280;57757;53.198;19.646;2023-01-24T00:01:33;102524.28;;;1.53;74.20
70338;BME280;57757;53.198;19.646;2023-01-24T00:04:01;102522.25;;;1.54;74.23
70338;BME280;57757;53.198;19.646;2023-01-24T00:06:29;102522.00;;;1.55;74.18
70338;BME280;57757;53.198;19.646;2023-01-24T00:08:57;102523.96;;;1.57;74.32
70338;BME280;57757;53.198;19.646;2023-01-24T00:11:25;102524.92;;;1.55;74.16
70338;BME280;57757;53.198;19.646;2023-01-24T00:13:53;102523.80;;;1.57;74.20
70338;BME280;57757;53.198;19.646;2023-01-24T00:16:21;102520.05;;;1.57;74.26
70338;BME280;57757;53.198;19.646;2023-01-24T00:18:50;102519.52;;;1.57;74.19
70338;BME280;57757;53.198;19.646;2023-01-24T00:21:20;102519.02;;;1.57;74.08
70338;BME280;57757;53.198;19.646;2023-01-24T00:23:50;102524.41;;;1.55;74.16
70338;BME280;57757;53.198;19.646;2023-01-24T00:26:20;102521.52;;;1.56;74.10
70338;BME280;57757;53.198;19.646;2023-01-24T00:28:48;102523.90;;;1.55;74.27
70338;BME280;57757;53.198;19.646;2023-01-24T00:31:17;102522.59;;;1.54;74.17
70338;BME280;57757;53.198;19.646;2023-01-24T00:33:45;102522.36;;;1.52;74.26
70338;BME280;57757;53.198;19.646;2023-01-24T00:36:13;102521.14;;;1.52;74.23
70338;BME280;57757;53.198;19.646;2023-01-24T00:38:41;102519.38;;;1.51;74.13
70338;BME280;57757;53.198;19.646;2023-01-24T00:41:09;102519.48;;;1.50;74.16
70338;BME280;57757;53.198;19.646;2023-01-24T00:43:36;102517.44;;;1.50;74.13
70338;BME280;57757;53.198;19.646;2023-01-24T00:46:06;102516.20;;;1.50;74.13
70338;BME280;57757;53.198;19.646;2023-01-24T00:48:34;102522.39;;;1.50;74.19
70338;BME280;57757;53.198;19.646;2023-01-24T00:51:02;102519.87;;;1.50;74.24
70338;BME280;57757;53.198;19.646;2023-01-24T00:53:30;102520.64;;;1.52;74.15
70338;BME280;57757;53.198;19.646;2023-01-24T00:55:57;102515.82;;;1.52;74.19
70338;BME280;57757;53.198;19.646;2023-01-24T00:58:25;102517.40;;;1.52;74.35
70338;BME280;57757;53.198;19.646;2023-01-24T01:00:57;102521.86;;;1.52;74.38
70338;BME280;57757;53.198;19.646;2023-01-24T01:03:28;102521.38;;;1.53;74.40
70338;BME280;57757;53.198;19.646;2023-01-24T01:06:01;102520.02;;;1.53;74.25
70338;BME280;57757;53.198;19.646;2023-01-24T01:08:29;102520.85;;;1.53;74.17
70338;BME280;57757;53.198;19.646;2023-01-24T01:10:57;102519.10;;;1.52;74.32
70338;BME280;57757;53.198;19.646;2023-01-24T01:13:26;102516.80;;;1.51;74.22
70338;BME280;57757;53.198;19.646;2023-01-24T01:16:12;102518.35;;;1.51;74.34
70338;BME280;57757;53.198;19.646;2023-01-24T01:18:41;102513.35;;;1.51;74.28
70338;BME280;57757;53.198;19.646;2023-01-24T01:21:14;102515.94;;;1.51;74.31
70338;BME280;57757;53.198;19.646;2023-01-24T01:23:42;102516.21;;;1.50;74.27
70338;BME280;57757;53.198;19.646;2023-01-24T01:26:15;102521.39;;;1.50;74.32
70338;BME280;57757;53.198;19.646;2023-01-24T01:28:43;102517.25;;;1.50;74.36
70338;BME280;57757;53.198;19.646;2023-01-24T01:31:11;102510.70;;;1.49;74.38
70338;BME280;57757;53.198;19.646;2023-01-24T01:33:40;102516.45;;;1.47;74.17
70338;BME280;57757;53.198;19.646;2023-01-24T01:36:08;102518.31;;;1.47;74.33
70338;BME280;57757;53.198;19.646;2023-01-24T01:38:36;102518.08;;;1.45;74.36
70338;BME280;57757;53.198;19.646;2023-01-24T01:41:04;102516.88;;;1.45;74.40
70338;BME280;57757;53.198;19.646;2023-01-24T01:43:32;102514.27;;;1.44;74.45
70338;BME280;57757;53.198;19.646;2023-01-24T01:53:37;102517.06;;;1.42;74.45
70338;BME280;57757;53.198;19.646;2023-01-24T01:56:38;102512.98;;;1.43;74.45
70338;BME280;57757;53.198;19.646;2023-01-24T01:59:11;102511.35;;;1.41;74.34
70338;BME280;57757;53.198;19.646;2023-01-24T02:01:41;102508.90;;;1.40;74.40
70338;BME280;57757;53.198;19.646;2023-01-24T02:04:20;102507.70;;;1.40;74.31
70338;BME280;57757;53.198;19.646;2023-01-24T02:06:54;102506.09;;;1.39;74.42
70338;BME280;57757;53.198;19.646;2023-01-24T02:09:27;102505.38;;;1.38;74.29
70338;BME280;57757;53.198;19.646;2023-01-24T02:11:59;102505.34;;;1.37;74.38
70338;BME280;57757;53.198;19.646;2023-01-24T02:14:29;102504.08;;;1.36;74.35
70338;BME280;57757;53.198;19.646;2023-01-24T02:17:18;102501.48;;;1.36;74.40
70338;BME280;57757;53.198;19.646;2023-01-24T02:25:39;102502.61;;;1.31;74.45
70338;BME280;57757;53.198;19.646;2023-01-24T02:28:08;102499.98;;;1.30;74.49
70338;BME280;57757;53.198;19.646;2023-01-24T02:30:37;102499.98;;;1.30;74.45
70338;BME280;57757;53.198;19.646;2023-01-24T02:33:24;102502.36;;;1.29;74.45
70338;BME280;57757;53.198;19.646;2023-01-24T02:36:24;102502.63;;;1.31;74.53
70338;BME280;57757;53.198;19.646;2023-01-24T02:38:57;102504.45;;;1.30;74.46
70338;BME280;57757;53.198;19.646;2023-01-24T02:41:29;102507.05;;;1.31;74.54
70338;BME280;57757;53.198;19.646;2023-01-24T02:44:03;102511.88;;;1.31;74.51
70338;BME280;57757;53.198;19.646;2023-01-24T02:46:36;102512.98;;;1.33;74.53
70338;BME280;57757;53.198;19.646;2023-01-24T02:49:08;102513.58;;;1.34;74.62
70338;BME280;57757;53.198;19.646;2023-01-24T02:51:37;102516.88;;;1.35;74.60
70338;BME280;57757;53.198;19.646;2023-01-24T02:54:19;102513.66;;;1.36;74.59
70338;BME280;57757;53.198;19.646;2023-01-24T02:56:47;102510.08;;;1.36;74.58
70338;BME280;57757;53.198;19.646;2023-01-24T02:59:31;102515.07;;;1.36;74.50
70338;BME280;57757;53.198;19.646;2023-01-24T03:01:59;102511.47;;;1.36;74.62
70338;BME280;57757;53.198;19.646;2023-01-24T03:04:26;102510.73;;;1.36;74.52
70338;BME280;57757;53.198;19.646;2023-01-24T03:06:54;102512.73;;;1.35;74.56
70338;BME280;57757;53.198;19.646;2023-01-24T03:09:22;102512.55;;;1.34;74.54
70338;BME280;57757;53.198;19.646;2023-01-24T03:12:01;102515.79;;;1.34;74.63
70338;BME280;57757;53.198;19.646;2023-01-24T03:14:46;102520.70;;;1.33;74.47
70338;BME280;57757;53.198;19.646;2023-01-24T03:17:29;102519.73;;;1.31;74.52
70338;BME280;57757;53.198;19.646;2023-01-24T03:20:13;102517.27;;;1.30;74.49
70338;BME280;57757;53.198;19.646;2023-01-24T03:22:57;102516.61;;;1.30;74.58
70338;BME280;57757;53.198;19.646;2023-01-24T03:25:40;102511.27;;;1.30;74.62
70338;BME280;57757;53.198;19.646;2023-01-24T03:28:24;102510.29;;;1.30;74.67
70338;BME280;57757;53.198;19.646;2023-01-24T03:31:08;102510.88;;;1.32;74.62
70338;BME280;57757;53.198;19.646;2023-01-24T03:33:51;102515.39;;;1.33;74.65
70338;BME280;57757;53.198;19.646;2023-01-24T03:36:35;102513.77;;;1.34;74.68
70338;BME280;57757;53.198;19.646;2023-01-24T03:39:03;102511.88;;;1.35;74.73
70338;BME280;57757;53.198;19.646;2023-01-24T03:41:46;102516.06;;;1.36;74.69
70338;BME280;57757;53.198;19.646;2023-01-24T03:44:14;102512.83;;;1.36;74.67
70338;BME280;57757;53.198;19.646;2023-01-24T03:46:42;102511.52;;;1.38;74.75
70338;BME280;57757;53.198;19.646;2023-01-24T03:49:09;102507.88;;;1.40;74.74
70338;BME280;57757;53.198;19.646;2023-01-24T03:51:37;102511.23;;;1.42;74.67
70338;BME280;57757;53.198;19.646;2023-01-24T03:54:20;102511.22;;;1.42;74.63
70338;BME280;57757;53.198;19.646;2023-01-24T03:56:47;102507.09;;;1.42;74.63
70338;BME280;57757;53.198;19.646;2023-01-24T03:59:20;102502.98;;;1.42;74.66
70338;BME280;57757;53.198;19.646;2023-01-24T04:01:48;102504.79;;;1.43;74.75
70338;BME280;57757;53.198;19.646;2023-01-24T04:04:16;102504.75;;;1.43;74.71
70338;BME280;57757;53.198;19.646;2023-01-24T04:06:43;102511.40;;;1.42;74.66
70338;BME280;57757;53.198;19.646;2023-01-24T04:09:11;102513.85;;;1.43;74.73
70338;BME280;57757;53.198;19.646;2023-01-24T04:11:39;102513.30;;;1.42;74.77
70338;BME280;57757;53.198;19.646;2023-01-24T04:14:06;102509.38;;;1.43;74.69
70338;BME280;57757;53.198;19.646;2023-01-24T04:16:34;102511.33;;;1.44;74.72
70338;BME280;57757;53.198;19.646;2023-01-24T04:19:02;102507.93;;;1.41;74.63
70338;BME280;57757;53.198;19.646;2023-01-24T04:21:29;102508.66;;;1.39;74.72
70338;BME280;57757;53.198;19.646;2023-01-24T04:23:57;102508.33;;;1.39;74.61
70338;BME280;57757;53.198;19.646;2023-01-24T04:26:24;102507.86;;;1.40;74.71
70338;BME280;57757;53.198;19.646;2023-01-24T04:28:53;102506.89;;;1.41;74.74
70338;BME280;57757;53.198;19.646;2023-01-24T04:31:21;102501.09;;;1.42;74.72
70338;BME280;57757;53.198;19.646;2023-01-24T04:33:49;102499.89;;;1.42;74.69
70338;BME280;57757;53.198;19.646;2023-01-24T04:36:16;102500.21;;;1.41;74.57
70338;BME280;57757;53.198;19.646;2023-01-24T04:38:44;102499.18;;;1.41;74.61
70338;BME280;57757;53.198;19.646;2023-01-24T04:41:12;102501.75;;;1.41;74.53
70338;BME280;57757;53.198;19.646;2023-01-24T04:43:41;102500.45;;;1.39;74.66
70338;BME280;57757;53.198;19.646;2023-01-24T04:46:09;102498.40;;;1.39;74.77
70338;BME280;57757;53.198;19.646;2023-01-24T04:48:36;102494.77;;;1.38;74.60
70338;BME280;57757;53.198;19.646;2023-01-24T04:51:04;102491.20;;;1.39;74.71
70338;BME280;57757;53.198;19.646;2023-01-24T04:53:32;102490.40;;;1.40;74.79
70338;BME280;57757;53.198;19.646;2023-01-24T04:56:03;102486.45;;;1.40;74.76
70338;BME280;57757;53.198;19.646;2023-01-24T04:58:32;102484.56;;;1.40;74.68
70338;BME280;57757;53.198;19.646;2023-01-24T05:01:00;102487.66;;;1.41;74.70
70338;BME280;57757;53.198;19.646;2023-01-24T05:03:31;102493.29;;;1.40;74.77
70338;BME280;57757;53.198;19.646;2023-01-24T05:05:58;102494.42;;;1.39;74.70
70338;BME280;57757;53.198;19.646;2023-01-24T05:08:26;102497.20;;;1.39;74.80
70338;BME280;57757;53.198;19.646;2023-01-24T05:10:54;102502.21;;;1.40;74.73
70338;BME280;57757;53.198;19.646;2023-01-24T05:13:21;102508.30;;;1.38;74.64
70338;BME280;57757;53.198;19.646;2023-01-24T05:15:50;102512.43;;;1.39;74.79
70338;BME280;57757;53.198;19.646;2023-01-24T05:18:18;102508.70;;;1.40;74.80
70338;BME280;57757;53.198;19.646;2023-01-24T05:20:46;102508.21;;;1.40;74.74
70338;BME280;57757;53.198;19.646;2023-01-24T05:23:14;102507.64;;;1.39;74.79
70338;BME280;57757;53.198;19.646;2023-01-24T05:25:42;102510.01;;;1.38;74.65
70338;BME280;57757;53.198;19.646;2023-01-24T05:28:09;102510.00;;;1.38;74.64
70338;BME280;57757;53.198;19.646;2023-01-24T05:30:37;102507.27;;;1.38;74.71
70338;BME280;57757;53.198;19.646;2023-01-24T05:33:05;102510.52;;;1.38;74.70
70338;BME280;57757;53.198;19.646;2023-01-24T05:35:32;102513.20;;;1.37;74.61
70338;BME280;57757;53.198;19.646;2023-01-24T05:38:00;102517.00;;;1.37;74.62
70338;BME280;57757;53.198;19.646;2023-01-24T05:40:28;102518.85;;;1.36;74.55
70338;BME280;57757;53.198;19.646;2023-01-24T05:42:55;102519.55;;;1.37;74.66
70338;BME280;57757;53.198;19.646;2023-01-24T05:45:23;102521.64;;;1.37;74.57
70338;BME280;57757;53.198;19.646;2023-01-24T05:47:51;102526.42;;;1.37;74.68
70338;BME280;57757;53.198;19.646;2023-01-24T05:50:19;102529.19;;;1.38;74.68
70338;BME280;57757;53.198;19.646;2023-01-24T05:52:47;102532.13;;;1.38;74.58
70338;BME280;57757;53.198;19.646;2023-01-24T05:55:14;102534.66;;;1.37;74.60
70338;BME280;57757;53.198;19.646;2023-01-24T05:57:42;102539.94;;;1.37;74.65
70338;BME280;57757;53.198;19.646;2023-01-24T06:00:10;102536.77;;;1.35;74.70
70338;BME280;57757;53.198;19.646;2023-01-24T06:02:38;102530.42;;;1.35;74.73
70338;BME280;57757;53.198;19.646;2023-01-24T06:05:06;102535.50;;;1.37;74.82
70338;BME280;57757;53.198;19.646;2023-01-24T06:07:34;102535.14;;;1.37;74.81
70338;BME280;57757;53.198;19.646;2023-01-24T06:10:02;102530.52;;;1.37;74.84
70338;BME280;57757;53.198;19.646;2023-01-24T06:12:30;102532.27;;;1.37;74.88
70338;BME280;57757;53.198;19.646;2023-01-24T06:14:57;102534.21;;;1.39;74.88
70338;BME280;57757;53.198;19.646;2023-01-24T06:17:25;102534.95;;;1.40;74.98
70338;BME280;57757;53.198;19.646;2023-01-24T06:19:53;102539.61;;;1.40;74.80
70338;BME280;57757;53.198;19.646;2023-01-24T06:22:45;102547.80;;;1.39;74.88
70338;BME280;57757;53.198;19.646;2023-01-24T06:25:21;102549.92;;;1.41;74.85
70338;BME280;57757;53.198;19.646;2023-01-24T06:27:50;102548.10;;;1.42;74.88
70338;BME280;57757;53.198;19.646;2023-01-24T06:30:19;102545.03;;;1.43;74.81
70338;BME280;57757;53.198;19.646;2023-01-24T06:38:22;102553.80;;;1.47;74.81
70338;BME280;57757;53.198;19.646;2023-01-24T06:40:59;102550.06;;;1.48;74.80
70338;BME280;57757;53.198;19.646;2023-01-24T06:43:28;102554.41;;;1.49;74.78
70338;BME280;57757;53.198;19.646;2023-01-24T06:45:56;102556.65;;;1.49;74.76
70338;BME280;57757;53.198;19.646;2023-01-24T06:48:24;102562.22;;;1.51;74.79
70338;BME280;57757;53.198;19.646;2023-01-24T06:50:51;102563.08;;;1.51;74.64
70338;BME280;57757;53.198;19.646;2023-01-24T06:53:19;102567.56;;;1.51;74.58
70338;BME280;57757;53.198;19.646;2023-01-24T06:55:47;102574.13;;;1.52;74.74
70338;BME280;57757;53.198;19.646;2023-01-24T06:58:15;102577.11;;;1.53;74.66
70338;BME280;57757;53.198;19.646;2023-01-24T07:00:43;102580.02;;;1.53;74.75
70338;BME280;57757;53.198;19.646;2023-01-24T07:03:11;102578.33;;;1.54;74.78
70338;BME280;57757;53.198;19.646;2023-01-24T07:05:39;102583.10;;;1.56;75.00
70338;BME280;57757;53.198;19.646;2023-01-24T07:08:07;102579.43;;;1.58;74.75
70338;BME280;57757;53.198;19.646;2023-01-24T07:10:35;102577.42;;;1.59;74.63
70338;BME280;57757;53.198;19.646;2023-01-24T07:13:03;102577.86;;;1.61;74.76
70338;BME280;57757;53.198;19.646;2023-01-24T07:15:31;102581.12;;;1.64;74.60
70338;BME280;57757;53.198;19.646;2023-01-24T07:18:04;102580.90;;;1.67;74.73
70338;BME280;57757;53.198;19.646;2023-01-24T07:20:33;102579.27;;;1.68;74.68
70338;BME280;57757;53.198;19.646;2023-01-24T07:23:01;102576.85;;;1.68;74.55
70338;BME280;57757;53.198;19.646;2023-01-24T07:25:29;102575.43;;;1.70;74.69
70338;BME280;57757;53.198;19.646;2023-01-24T07:27:58;102572.33;;;1.74;74.70
70338;BME280;57757;53.198;19.646;2023-01-24T07:30:26;102575.37;;;1.76;74.53
70338;BME280;57757;53.198;19.646;2023-01-24T07:32:55;102571.35;;;1.78;74.83
70338;BME280;57757;53.198;19.646;2023-01-24T07:35:23;102571.48;;;1.80;74.67
70338;BME280;57757;53.198;19.646;2023-01-24T07:37:51;102573.70;;;1.83;74.68
70338;BME280;57757;53.198;19.646;2023-01-24T07:40:19;102569.56;;;1.87;74.75
70338;BME280;57757;53.198;19.646;2023-01-24T07:42:46;102568.58;;;1.91;74.69
70338;BME280;57757;53.198;19.646;2023-01-24T07:45:14;102567.00;;;1.94;74.54
70338;BME280;57757;53.198;19.646;2023-01-24T07:47:42;102567.66;;;1.97;74.60
70338;BME280;57757;53.198;19.646;2023-01-24T07:50:10;102571.91;;;1.99;74.67
70338;BME280;57757;53.198;19.646;2023-01-24T07:52:37;102569.52;;;2.03;74.74
70338;BME280;57757;53.198;19.646;2023-01-24T07:55:05;102571.09;;;2.07;74.72
70338;BME280;57757;53.198;19.646;2023-01-24T07:57:33;102565.76;;;2.11;74.60
70338;BME280;57757;53.198;19.646;2023-01-24T08:00:01;102571.59;;;2.14;74.66
70338;BME280;57757;53.198;19.646;2023-01-24T08:02:30;102575.83;;;2.16;74.60
70338;BME280;57757;53.198;19.646;2023-01-24T08:04:58;102578.21;;;2.19;74.68
70338;BME280;57757;53.198;19.646;2023-01-24T08:07:25;102580.11;;;2.23;74.60
70338;BME280;57757;53.198;19.646;2023-01-24T08:09:54;102582.20;;;2.27;74.66
70338;BME280;57757;53.198;19.646;2023-01-24T08:12:21;102580.04;;;2.32;74.65
70338;BME280;57757;53.198;19.646;2023-01-24T08:14:49;102586.51;;;2.38;74.62
70338;BME280;57757;53.198;19.646;2023-01-24T08:17:17;102585.95;;;2.45;74.59
70338;BME280;57757;53.198;19.646;2023-01-24T08:19:45;102584.84;;;2.50;74.55
70338;BME280;57757;53.198;19.646;2023-01-24T08:22:24;102588.08;;;2.53;74.40
70338;BME280;57757;53.198;19.646;2023-01-24T08:24:52;102589.65;;;2.54;74.47
70338;BME280;57757;53.198;19.646;2023-01-24T08:27:19;102592.57;;;2.57;74.43
70338;BME280;57757;53.198;19.646;2023-01-24T08:29:47;102593.79;;;2.61;74.42
70338;BME280;57757;53.198;19.646;2023-01-24T08:32:15;102596.00;;;2.64;74.26
70338;BME280;57757;53.198;19.646;2023-01-24T08:34:43;102596.48;;;2.67;74.51
70338;BME280;57757;53.198;19.646;2023-01-24T08:37:10;102606.46;;;2.71;74.37
70338;BME280;57757;53.198;19.646;2023-01-24T08:39:38;102610.84;;;2.77;74.46
70338;BME280;57757;53.198;19.646;2023-01-24T08:42:06;102614.47;;;2.81;74.49
70338;BME280;57757;53.198;19.646;2023-01-24T08:44:35;102621.17;;;2.84;74.27
70338;BME280;57757;53.198;19.646;2023-01-24T08:47:03;102621.23;;;2.86;74.14
70338;BME280;57757;53.198;19.646;2023-01-24T08:49:33;102622.54;;;2.84;74.10
70338;BME280;57757;53.198;19.646;2023-01-24T08:52:01;102624.91;;;2.83;74.07
70338;BME280;57757;53.198;19.646;2023-01-24T08:54:29;102628.41;;;2.85;73.96
70338;BME280;57757;53.198;19.646;2023-01-24T08:56:59;102629.27;;;2.85;73.98
70338;BME280;57757;53.198;19.646;2023-01-24T08:59:27;102630.11;;;2.85;73.78
70338;BME280;57757;53.198;19.646;2023-01-24T09:01:55;102628.21;;;2.84;73.78
70338;BME280;57757;53.198;19.646;2023-01-24T09:04:25;102636.27;;;2.84;73.78
70338;BME280;57757;53.198;19.646;2023-01-24T09:06:55;102638.41;;;2.85;73.94
70338;BME280;57757;53.198;19.646;2023-01-24T09:09:23;102640.58;;;2.88;74.04
70338;BME280;57757;53.198;19.646;2023-01-24T09:11:52;102639.67;;;2.87;73.85
70338;BME280;57757;53.198;19.646;2023-01-24T09:14:22;102639.89;;;2.84;73.73
70338;BME280;57757;53.198;19.646;2023-01-24T09:16:49;102641.42;;;2.84;73.77
70338;BME280;57757;53.198;19.646;2023-01-24T09:19:18;102640.70;;;2.86;73.86
70338;BME280;57757;53.198;19.646;2023-01-24T09:21:46;102644.02;;;2.88;73.84
70338;BME280;57757;53.198;19.646;2023-01-24T09:24:20;102643.18;;;2.88;73.72
70338;BME280;57757;53.198;19.646;2023-01-24T09:26:48;102641.35;;;2.82;73.42
70338;BME280;57757;53.198;19.646;2023-01-24T09:29:16;102638.17;;;2.77;73.49
70338;BME280;57757;53.198;19.646;2023-01-24T09:31:46;102639.32;;;2.75;73.49
70338;BME280;57757;53.198;19.646;2023-01-24T09:34:15;102639.48;;;2.75;73.54
70338;BME280;57757;53.198;19.646;2023-01-24T09:36:43;102643.23;;;2.75;73.52
70338;BME280;57757;53.198;19.646;2023-01-24T09:39:10;102642.64;;;2.73;73.53
70338;BME280;57757;53.198;19.646;2023-01-24T09:41:44;102640.05;;;2.73;73.62
70338;BME280;57757;53.198;19.646;2023-01-24T09:44:39;102637.48;;;2.77;73.73
70338;BME280;57757;53.198;19.646;2023-01-24T09:47:17;102639.39;;;2.92;74.10
70338;BME280;57757;53.198;19.646;2023-01-24T09:49:56;102638.14;;;2.94;73.93
70338;BME280;57757;53.198;19.646;2023-01-24T09:52:44;102630.44;;;2.99;73.60
70338;BME280;57757;53.198;19.646;2023-01-24T09:55:15;102626.36;;;3.00;73.35
70338;BME280;57757;53.198;19.646;2023-01-24T10:02:56;102612.21;;;3.02;73.39
70338;BME280;57757;53.198;19.646;2023-01-24T10:05:47;102609.67;;;3.03;73.43
70338;BME280;57757;53.198;19.646;2023-01-24T10:10:49;102605.67;;;3.10;73.43
70338;BME280;57757;53.198;19.646;2023-01-24T10:19:04;102612.91;;;3.29;73.60
70338;BME280;57757;53.198;19.646;2023-01-24T10:24:12;102610.45;;;3.39;73.42
70338;BME280;57757;53.198;19.646;2023-01-24T10:26:51;102613.95;;;3.37;73.21
70338;BME280;57757;53.198;19.646;2023-01-24T10:29:24;102612.52;;;3.31;73.07
70338;BME280;57757;53.198;19.646;2023-01-24T10:31:59;102602.11;;;3.30;73.11
70338;BME280;57757;53.198;19.646;2023-01-24T10:34:44;102602.45;;;3.29;73.16
70338;BME280;57757;53.198;19.646;2023-01-24T10:39:47;102598.93;;;3.24;72.99
70338;BME280;57757;53.198;19.646;2023-01-24T10:42:24;102593.36;;;3.26;73.18
70338;BME280;57757;53.198;19.646;2023-01-24T10:44:55;102592.27;;;3.25;73.12
70338;BME280;57757;53.198;19.646;2023-01-24T10:50:17;102588.84;;;3.17;72.82
70338;BME280;57757;53.198;19.646;2023-01-24T10:52:45;102587.64;;;3.21;72.87
70338;BME280;57757;53.198;19.646;2023-01-24T10:55:30;102583.13;;;3.28;72.90
70338;BME280;57757;53.198;19.646;2023-01-24T10:58:23;102578.05;;;3.34;72.94
70338;BME280;57757;53.198;19.646;2023-01-24T11:01:04;102571.95;;;3.44;73.02
70338;BME280;57757;53.198;19.646;2023-01-24T11:03:33;102566.77;;;3.51;72.98
70338;BME280;57757;53.198;19.646;2023-01-24T11:06:03;102565.20;;;3.55;72.97
70338;BME280;57757;53.198;19.646;2023-01-24T11:08:34;102558.77;;;3.62;72.93
70338;BME280;57757;53.198;19.646;2023-01-24T11:11:06;102557.46;;;3.67;72.92
70338;BME280;57757;53.198;19.646;2023-01-24T11:13:44;102551.65;;;3.68;72.80
70338;BME280;57757;53.198;19.646;2023-01-24T11:18:48;102539.91;;;3.71;72.68
70338;BME280;57757;53.198;19.646;2023-01-24T11:21:18;102538.36;;;3.79;72.78
70338;BME280;57757;53.198;19.646;2023-01-24T11:27:02;102530.95;;;3.92;72.66
70338;BME280;57757;53.198;19.646;2023-01-24T11:29:31;102526.79;;;3.91;72.53
70338;BME280;57757;53.198;19.646;2023-01-24T11:32:30;102515.41;;;3.95;72.57
70338;BME280;57757;53.198;19.646;2023-01-24T11:40:42;102520.70;;;4.11;72.56
70338;BME280;57757;53.198;19.646;2023-01-24T11:46:42;102512.22;;;4.09;72.18
70338;BME280;57757;53.198;19.646;2023-01-24T12:09:17;102523.29;;;3.69;71.50
70338;BME280;57757;53.198;19.646;2023-01-24T12:26:03;102538.27;;;2.98;71.56
70338;BME280;57757;53.198;19.646;2023-01-24T12:37:39;102541.33;;;2.71;71.49
70338;BME280;57757;53.198;19.646;2023-01-24T12:59:08;102527.61;;;2.38;71.76
70338;BME280;57757;53.198;19.646;2023-01-24T13:12:44;102513.69;;;1.99;71.74
70338;BME280;57757;53.198;19.646;2023-01-24T13:23:57;102515.09;;;1.81;71.99
70338;BME280;57757;53.198;19.646;2023-01-24T13:32:20;102512.34;;;1.78;72.14
70338;BME280;57757;53.198;19.646;2023-01-24T13:34:53;102511.13;;;1.81;72.23
70338;BME280;57757;53.198;19.646;2023-01-24T13:37:26;102511.58;;;1.83;72.14
70338;BME280;57757;53.198;19.646;2023-01-24T13:42:43;102515.54;;;1.83;72.04
70338;BME280;57757;53.198;19.646;2023-01-24T13:47:59;102509.66;;;1.72;71.90
70338;BME280;57757;53.198;19.646;2023-01-24T13:50:29;102505.65;;;1.71;72.03
70338;BME280;57757;53.198;19.646;2023-01-24T13:52:59;102497.63;;;1.69;72.01
70338;BME280;57757;53.198;19.646;2023-01-24T14:00:48;102494.72;;;1.72;72.06
70338;BME280;57757;53.198;19.646;2023-01-24T14:13:53;102479.52;;;1.67;72.05
70338;BME280;57757;53.198;19.646;2023-01-24T14:19:15;102477.63;;;1.67;72.01
70338;BME280;57757;53.198;19.646;2023-01-24T14:21:52;102480.08;;;1.64;72.01
70338;BME280;57757;53.198;19.646;2023-01-24T14:27:00;102478.38;;;1.54;71.86
70338;BME280;57757;53.198;19.646;2023-01-24T14:29:40;102479.30;;;1.52;71.95
70338;BME280;57757;53.198;19.646;2023-01-24T14:32:34;102475.14;;;1.51;72.02
70338;BME280;57757;53.198;19.646;2023-01-24T14:37:52;102466.29;;;1.49;72.00
70338;BME280;57757;53.198;19.646;2023-01-24T14:40:23;102465.26;;;1.45;71.98
70338;BME280;57757;53.198;19.646;2023-01-24T14:43:08;102471.23;;;1.41;72.06
70338;BME280;57757;53.198;19.646;2023-01-24T14:45:37;102466.95;;;1.37;72.11
70338;BME280;57757;53.198;19.646;2023-01-24T14:48:10;102466.02;;;1.36;72.04
70338;BME280;57757;53.198;19.646;2023-01-24T14:50:38;102465.69;;;1.33;72.05
70338;BME280;57757;53.198;19.646;2023-01-24T14:53:26;102467.67;;;1.32;72.12
70338;BME280;57757;53.198;19.646;2023-01-24T14:56:15;102472.55;;;1.30;72.14
70338;BME280;57757;53.198;19.646;2023-01-24T14:58:43;102479.50;;;1.28;72.12
70338;BME280;57757;53.198;19.646;2023-01-24T15:01:30;102477.79;;;1.25;71.91
70338;BME280;57757;53.198;19.646;2023-01-24T15:04:00;102484.11;;;1.18;71.91
70338;BME280;57757;53.198;19.646;2023-01-24T15:06:28;102482.80;;;1.09;71.81
70338;BME280;57757;53.198;19.646;2023-01-24T15:09:00;102486.55;;;1.02;71.72
70338;BME280;57757;53.198;19.646;2023-01-24T15:11:31;102491.46;;;0.91;71.52
70338;BME280;57757;53.198;19.646;2023-01-24T15:14:06;102494.94;;;0.79;71.60
70338;BME280;57757;53.198;19.646;2023-01-24T15:17:00;102496.80;;;0.69;71.75
70338;BME280;57757;53.198;19.646;2023-01-24T15:19:29;102494.77;;;0.64;71.75
70338;BME280;57757;53.198;19.646;2023-01-24T15:21:59;102492.96;;;0.59;71.61
70338;BME280;57757;53.198;19.646;2023-01-24T15:24:30;102495.17;;;0.52;71.65
70338;BME280;57757;53.198;19.646;2023-01-24T15:26:59;102497.66;;;0.44;71.64
70338;BME280;57757;53.198;19.646;2023-01-24T15:29:44;102504.29;;;0.37;71.76
70338;BME280;57757;53.198;19.646;2023-01-24T15:32:40;102509.13;;;0.31;71.94
70338;BME280;57757;53.198;19.646;2023-01-24T15:38:16;102515.36;;;0.26;72.03
70338;BME280;57757;53.198;19.646;2023-01-24T15:40:58;102517.80;;;0.24;71.83
70338;BME280;57757;53.198;19.646;2023-01-24T15:43:35;102514.01;;;0.15;71.61
70338;BME280;57757;53.198;19.646;2023-01-24T15:46:39;102509.80;;;0.01;71.51
70338;BME280;57757;53.198;19.646;2023-01-24T15:54:44;102507.33;;;-0.10;72.01
70338;BME280;57757;53.198;19.646;2023-01-24T15:59:46;102513.71;;;-0.09;71.88
70338;BME280;57757;53.198;19.646;2023-01-24T16:02:15;102505.92;;;-0.07;71.95
70338;BME280;57757;53.198;19.646;2023-01-24T16:04:43;102501.83;;;-0.04;72.13
70338;BME280;57757;53.198;19.646;2023-01-24T16:07:13;102500.39;;;-0.02;72.07
70338;BME280;57757;53.198;19.646;2023-01-24T16:09:41;102498.52;;;-0.02;71.98
70338;BME280;57757;53.198;19.646;2023-01-24T16:12:13;102494.65;;;-0.04;71.85
70338;BME280;57757;53.198;19.646;2023-01-24T16:14:48;102488.70;;;-0.06;71.74
70338;BME280;57757;53.198;19.646;2023-01-24T16:17:34;102488.70;;;-0.06;71.95